Sirius — WDA2145 — position and weather

sailwx.info

Track history (hours):
 
Tides and Currents Weather Stations Pressure Air Temp Water Temp Dewpoint Dewpoint Depression Visibility Wind Speed Wind Dir Waves Ship Positions

Sirius

Owner: TISBURY TOWING AND TRANSPORTATION INC, TISBURY, MA. More information available from US FCC via Universal Licensing System and Coast Guard Vessel Documentation Center.

Last reported at 2014-Oct-30 19:19 UTC. Time now 2014-Oct-31 06:18 UTC.
Position N 41°27' W 070°36'.

Length 19 m; draft 1.9 m.

Type: Towing. MMSI: 367181040.

Date/timePositionNaut miles runAvg speedWind from/ knotsBaromVisibWave heightAir tempDewpointWater temp
2014-Oct-30 19:19N 41°27' W 070°36'10 0.8
2014-Oct-30 07:30N 41°33' W 070°46'7 6.1
2014-Oct-30 06:26N 41°30' W 070°38'5 0.3
2014-Oct-29 15:26N 41°28' W 070°33'5 5.9
2014-Oct-29 14:33N 41°27' W 070°26'8 6.3
2014-Oct-29 13:18N 41°25' W 070°16'7 6.1
2014-Oct-29 12:08N 41°21' W 070°08'4 6.6
2014-Oct-29 11:30N 41°18' W 070°06'0 0.1
2014-Oct-29 06:20N 41°17' W 070°06'1 1.6
2014-Oct-29 05:26N 41°19' W 070°06'5 5.4
2014-Oct-29 04:34N 41°23' W 070°09'7 6.7
2014-Oct-29 03:34N 41°26' W 070°17'7 7.2
2014-Oct-29 02:31N 41°27' W 070°26'6 6.5
2014-Oct-29 01:34N 41°29' W 070°34'6 5.9
2014-Oct-29 00:33N 41°31' W 070°42'6 6.3
2014-Oct-28 23:34N 41°33' W 070°50'6 5.6
2014-Oct-28 22:33N 41°38' W 070°54'2 1.6
2014-Oct-28 21:34N 41°39' W 070°55'0 0.0
2014-Oct-28 20:31N 41°39' W 070°55'4 3.5
2014-Oct-28 19:30N 41°36' W 070°54'6 6.1
2014-Oct-28 18:34N 41°33' W 070°47'6 5.8
2014-Oct-28 17:31N 41°31' W 070°39'5 4.6
2014-Oct-28 16:31N 41°29' W 070°34'5 4.8
2014-Oct-28 15:26N 41°28' W 070°27'5 5.4
2014-Oct-28 14:32N 41°27' W 070°21'5 5.5
2014-Oct-28 13:34N 41°25' W 070°14'7 5.5
2014-Oct-28 12:20N 41°21' W 070°07'4 4.9
2014-Oct-28 11:33N 41°17' W 070°06'0 0.0
2014-Oct-28 10:31N 41°17' W 070°06'0 0.0
2014-Oct-28 09:31N 41°17' W 070°06'0 0.0
2014-Oct-28 08:33N 41°17' W 070°06'0 0.0
2014-Oct-28 07:33N 41°17' W 070°06'0 0.0
2014-Oct-28 06:24N 41°17' W 070°06'0 0.0
2014-Oct-28 05:29N 41°17' W 070°06'0 0.1
2014-Oct-28 04:19N 41°17' W 070°06'4 4.2
2014-Oct-28 03:26N 41°21' W 070°07'12 6.3
2014-Oct-28 01:28N 41°27' W 070°22'6 6.2
2014-Oct-28 00:29N 41°27' W 070°30'  
2014-Oct-24 11:10N 41°39' W 070°55'13 0.5
2014-Oct-23 09:25N 41°31' W 070°40'0 0.0
2014-Oct-23 06:20N 41°31' W 070°40'30 1.4
2014-Oct-22 09:21N 41°17' W 070°06'2 2.4
2014-Oct-22 08:31N 41°19' W 070°06'6 5.9
2014-Oct-22 07:33N 41°24' W 070°09'6 5.1
2014-Oct-22 06:22N 41°26' W 070°17'4 4.6
2014-Oct-22 05:32N 41°27' W 070°22'5 4.5
2014-Oct-22 04:31N 41°27' W 070°28'5 5.0
2014-Oct-22 03:30N 41°29' W 070°34'5 5.2
2014-Oct-22 02:28N 41°31' W 070°41'5 5.7
2014-Oct-22 01:33N 41°33' W 070°48'6 5.5
2014-Oct-22 00:22N 41°37' W 070°54'4 1.3
2014-Oct-21 21:13N 41°34' W 070°52'5 6.8
2014-Oct-21 20:33N 41°33' W 070°46'8 7.2
2014-Oct-21 19:29N 41°29' W 070°36'0 0.0
2014-Oct-21 16:31N 41°30' W 070°37'11 5.0
2014-Oct-21 14:22N 41°33' W 070°50'7 2.2
2014-Oct-21 11:05N 41°39' W 070°55'15 1.7
2014-Oct-21 02:24N 41°30' W 070°39'7 7.5
2014-Oct-21 01:30N 41°33' W 070°47'1 0.4
2014-Oct-20 22:25N 41°32' W 070°46'6 5.5
2014-Oct-20 21:20N 41°30' W 070°38'  
Track history (hours):
 
Tides and Currents Weather Stations Pressure Air Temp Water Temp Dewpoint Dewpoint Depression Visibility Wind Speed Wind Dir Waves Ship Positions

Sirius

Owner: TISBURY TOWING AND TRANSPORTATION INC, TISBURY, MA. More information available from US FCC via Universal Licensing System and Coast Guard Vessel Documentation Center.

Last reported at 2014-Oct-30 19:19 UTC. Time now 2014-Oct-31 06:18 UTC.
Position N 41°27' W 070°36'.

Length 19 m; draft 1.9 m.

Type: Towing. MMSI: 367181040.

Date/timePositionNaut miles runAvg speedWind from/ knotsBaromVisibWave heightAir tempDewpointWater temp
2014-Oct-30 19:19N 41°27' W 070°36'10 0.8
2014-Oct-30 07:30N 41°33' W 070°46'7 6.1
2014-Oct-30 06:26N 41°30' W 070°38'5 0.3
2014-Oct-29 15:26N 41°28' W 070°33'5 5.9
2014-Oct-29 14:33N 41°27' W 070°26'8 6.3
2014-Oct-29 13:18N 41°25' W 070°16'7 6.1
2014-Oct-29 12:08N 41°21' W 070°08'4 6.6
2014-Oct-29 11:30N 41°18' W 070°06'0 0.1
2014-Oct-29 06:20N 41°17' W 070°06'1 1.6
2014-Oct-29 05:26N 41°19' W 070°06'5 5.4
2014-Oct-29 04:34N 41°23' W 070°09'7 6.7
2014-Oct-29 03:34N 41°26' W 070°17'7 7.2
2014-Oct-29 02:31N 41°27' W 070°26'6 6.5
2014-Oct-29 01:34N 41°29' W 070°34'6 5.9
2014-Oct-29 00:33N 41°31' W 070°42'6 6.3
2014-Oct-28 23:34N 41°33' W 070°50'6 5.6
2014-Oct-28 22:33N 41°38' W 070°54'2 1.6
2014-Oct-28 21:34N 41°39' W 070°55'0 0.0
2014-Oct-28 20:31N 41°39' W 070°55'4 3.5
2014-Oct-28 19:30N 41°36' W 070°54'6 6.1
2014-Oct-28 18:34N 41°33' W 070°47'6 5.8
2014-Oct-28 17:31N 41°31' W 070°39'5 4.6
2014-Oct-28 16:31N 41°29' W 070°34'5 4.8
2014-Oct-28 15:26N 41°28' W 070°27'5 5.4
2014-Oct-28 14:32N 41°27' W 070°21'5 5.5
2014-Oct-28 13:34N 41°25' W 070°14'7 5.5
2014-Oct-28 12:20N 41°21' W 070°07'4 4.9
2014-Oct-28 11:33N 41°17' W 070°06'0 0.0
2014-Oct-28 10:31N 41°17' W 070°06'0 0.0
2014-Oct-28 09:31N 41°17' W 070°06'0 0.0
2014-Oct-28 08:33N 41°17' W 070°06'0 0.0
2014-Oct-28 07:33N 41°17' W 070°06'0 0.0
2014-Oct-28 06:24N 41°17' W 070°06'0 0.0
2014-Oct-28 05:29N 41°17' W 070°06'0 0.1
2014-Oct-28 04:19N 41°17' W 070°06'4 4.2
2014-Oct-28 03:26N 41°21' W 070°07'12 6.3
2014-Oct-28 01:28N 41°27' W 070°22'6 6.2
2014-Oct-28 00:29N 41°27' W 070°30'  
2014-Oct-24 11:10N 41°39' W 070°55'13 0.5
2014-Oct-23 09:25N 41°31' W 070°40'0 0.0
2014-Oct-23 06:20N 41°31' W 070°40'30 1.4
2014-Oct-22 09:21N 41°17' W 070°06'2 2.4
2014-Oct-22 08:31N 41°19' W 070°06'6 5.9
2014-Oct-22 07:33N 41°24' W 070°09'6 5.1
2014-Oct-22 06:22N 41°26' W 070°17'4 4.6
2014-Oct-22 05:32N 41°27' W 070°22'5 4.5
2014-Oct-22 04:31N 41°27' W 070°28'5 5.0
2014-Oct-22 03:30N 41°29' W 070°34'5 5.2
2014-Oct-22 02:28N 41°31' W 070°41'5 5.7
2014-Oct-22 01:33N 41°33' W 070°48'6 5.5
2014-Oct-22 00:22N 41°37' W 070°54'4 1.3
2014-Oct-21 21:13N 41°34' W 070°52'5 6.8
2014-Oct-21 20:33N 41°33' W 070°46'8 7.2
2014-Oct-21 19:29N 41°29' W 070°36'0 0.0
2014-Oct-21 16:31N 41°30' W 070°37'11 5.0
2014-Oct-21 14:22N 41°33' W 070°50'7 2.2
2014-Oct-21 11:05N 41°39' W 070°55'15 1.7
2014-Oct-21 02:24N 41°30' W 070°39'7 7.5
2014-Oct-21 01:30N 41°33' W 070°47'1 0.4
2014-Oct-20 22:25N 41°32' W 070°46'6 5.5
2014-Oct-20 21:20N 41°30' W 070°38'  

Dump ship's entire track history